createdAt,value
2022-08-26T00:00:11.062Z,15.39
2022-08-26T00:01:11.063Z,15.35
2022-08-26T00:02:11.118Z,15.35
2022-08-26T00:03:11.062Z,15.34
2022-08-26T00:04:11.201Z,15.33
2022-08-26T00:05:11.071Z,15.34
2022-08-26T00:06:11.062Z,15.34
2022-08-26T00:07:11.065Z,15.29
2022-08-26T00:08:11.070Z,15.29
2022-08-26T00:09:11.083Z,15.26
2022-08-26T00:10:11.065Z,15.29
2022-08-26T00:11:11.071Z,15.30
2022-08-26T00:12:12.436Z,15.28
2022-08-26T00:13:11.060Z,15.31
2022-08-26T00:14:11.063Z,15.32
2022-08-26T00:15:12.066Z,15.33
2022-08-26T00:16:11.110Z,15.32
2022-08-26T00:17:11.065Z,15.31
2022-08-26T00:18:16.950Z,15.30
2022-08-26T00:19:14.900Z,15.27
2022-08-26T00:20:11.061Z,15.27
2022-08-26T00:21:11.064Z,15.27
2022-08-26T00:22:11.058Z,15.27
2022-08-26T00:23:11.055Z,15.25
2022-08-26T00:24:11.058Z,15.22
2022-08-26T00:25:11.059Z,15.23
2022-08-26T00:26:11.159Z,15.21
2022-08-26T00:27:11.057Z,15.19
2022-08-26T00:28:11.086Z,15.17
2022-08-26T00:29:11.057Z,15.15
2022-08-26T00:30:13.060Z,15.15
2022-08-26T00:31:11.295Z,15.12
2022-08-26T00:32:11.058Z,15.12
2022-08-26T00:33:11.058Z,15.09
2022-08-26T00:34:11.214Z,15.11
2022-08-26T00:35:11.061Z,15.10
2022-08-26T00:36:19.897Z,15.08
2022-08-26T00:37:16.149Z,15.09
2022-08-26T00:38:11.061Z,15.08
2022-08-26T00:39:11.060Z,15.06
2022-08-26T00:40:14.167Z,15.02
2022-08-26T00:41:11.060Z,15.00
2022-08-26T00:42:11.055Z,14.97
2022-08-26T00:43:11.112Z,14.96
2022-08-26T00:44:11.248Z,14.95
2022-08-26T00:45:11.806Z,14.94
2022-08-26T00:46:15.165Z,14.90
2022-08-26T00:47:17.065Z,14.88
2022-08-26T00:48:11.062Z,14.86
2022-08-26T00:49:15.057Z,14.87
2022-08-26T00:50:14.063Z,14.88
2022-08-26T00:51:19.063Z,14.89
2022-08-26T00:52:13.270Z,14.84
2022-08-26T00:53:12.064Z,14.85
2022-08-26T00:54:11.063Z,14.84
2022-08-26T00:55:20.268Z,14.80
2022-08-26T00:56:19.060Z,14.79
2022-08-26T00:57:16.218Z,14.79
2022-08-26T00:58:11.065Z,14.76
2022-08-26T00:59:11.063Z,14.76
2022-08-26T01:00:13.061Z,14.76
2022-08-26T01:01:11.077Z,14.75
2022-08-26T01:02:20.981Z,14.73
2022-08-26T01:03:13.340Z,14.70
2022-08-26T01:04:11.063Z,14.72
2022-08-26T01:05:11.065Z,14.71
2022-08-26T01:06:12.371Z,14.69
2022-08-26T01:07:11.063Z,14.67
2022-08-26T01:08:11.070Z,14.68
2022-08-26T01:09:11.062Z,14.67
2022-08-26T01:10:12.074Z,14.65
2022-08-26T01:11:11.072Z,14.62
2022-08-26T01:12:11.061Z,14.62
2022-08-26T01:13:11.067Z,14.55
2022-08-26T01:14:11.075Z,14.59
2022-08-26T01:15:12.061Z,14.56
2022-08-26T01:16:12.119Z,14.53
2022-08-26T01:17:11.067Z,14.54
2022-08-26T01:18:11.066Z,14.55
2022-08-26T01:19:18.066Z,14.55
2022-08-26T01:20:21.058Z,14.54
2022-08-26T01:21:19.065Z,14.55
2022-08-26T01:22:15.058Z,14.58
2022-08-26T01:23:11.056Z,14.57
2022-08-26T01:24:11.056Z,14.55
2022-08-26T01:25:11.064Z,14.57
2022-08-26T01:26:19.659Z,14.56
2022-08-26T01:27:14.629Z,14.59
2022-08-26T01:28:14.066Z,14.61
2022-08-26T01:29:14.058Z,14.64
2022-08-26T01:30:11.056Z,14.65
2022-08-26T01:31:12.124Z,14.67
2022-08-26T01:32:13.058Z,14.69
2022-08-26T01:33:17.059Z,14.68
2022-08-26T01:34:19.692Z,14.69
2022-08-26T01:35:11.059Z,14.73
2022-08-26T01:36:11.057Z,14.74
2022-08-26T01:37:17.054Z,14.72
2022-08-26T01:38:11.058Z,14.73
2022-08-26T01:39:11.060Z,14.76
2022-08-26T01:40:13.137Z,14.80
2022-08-26T01:41:14.164Z,14.79
2022-08-26T01:42:14.310Z,14.81
2022-08-26T01:43:13.058Z,14.81
2022-08-26T01:44:14.062Z,14.84
2022-08-26T01:45:18.066Z,14.88
2022-08-26T01:46:11.097Z,14.87
2022-08-26T01:47:11.058Z,14.85
2022-08-26T01:48:14.058Z,14.83
2022-08-26T01:49:11.067Z,14.82
2022-08-26T01:50:27.626Z,14.83
2022-08-26T01:51:13.075Z,14.85
2022-08-26T01:52:11.090Z,14.88
2022-08-26T01:53:11.322Z,14.91
2022-08-26T01:54:11.981Z,14.94
2022-08-26T01:55:11.063Z,14.94
2022-08-26T01:56:11.063Z,14.92
2022-08-26T01:57:11.060Z,14.93
2022-08-26T01:58:16.064Z,14.94
2022-08-26T01:59:12.237Z,14.96
2022-08-26T02:00:11.059Z,14.97
2022-08-26T02:01:11.125Z,14.96
2022-08-26T02:02:11.070Z,14.98
2022-08-26T02:03:15.060Z,14.99
2022-08-26T02:04:19.109Z,15.01
2022-08-26T02:05:11.066Z,15.02
2022-08-26T02:06:11.069Z,15.00
2022-08-26T02:07:11.059Z,14.99
2022-08-26T02:08:11.065Z,14.96
2022-08-26T02:09:11.068Z,14.91
2022-08-26T02:10:11.064Z,14.91
2022-08-26T02:11:11.065Z,14.92
2022-08-26T02:12:11.069Z,14.90
2022-08-26T02:13:11.061Z,14.85
2022-08-26T02:14:12.085Z,14.84
2022-08-26T02:15:12.071Z,14.86
2022-08-26T02:16:11.119Z,14.85
2022-08-26T02:17:11.066Z,14.85
2022-08-26T02:18:14.149Z,14.84
2022-08-26T02:19:17.249Z,14.84
2022-08-26T02:20:14.995Z,14.85
2022-08-26T02:21:11.062Z,14.83
2022-08-26T02:22:13.066Z,14.82
2022-08-26T02:23:11.055Z,14.82
2022-08-26T02:24:14.062Z,14.81
2022-08-26T02:25:20.061Z,14.82
2022-08-26T02:26:19.323Z,14.80
2022-08-26T02:27:11.057Z,14.80
2022-08-26T02:28:11.058Z,14.79
2022-08-26T02:29:20.058Z,14.76
2022-08-26T02:30:15.063Z,14.72
2022-08-26T02:31:11.092Z,14.73
2022-08-26T02:32:11.065Z,14.73
2022-08-26T02:33:11.060Z,14.71
2022-08-26T02:34:15.189Z,14.68
2022-08-26T02:35:11.059Z,14.68
2022-08-26T02:36:12.073Z,14.68
2022-08-26T02:37:11.060Z,14.67
2022-08-26T02:38:11.292Z,14.62
2022-08-26T02:39:11.068Z,14.63
2022-08-26T02:40:12.096Z,14.61
2022-08-26T02:41:11.056Z,14.61
2022-08-26T02:42:11.072Z,14.57
2022-08-26T02:43:11.063Z,14.53
2022-08-26T02:44:11.056Z,14.56
2022-08-26T02:45:11.071Z,14.47
2022-08-26T02:46:11.096Z,14.43
2022-08-26T02:47:12.122Z,14.46
2022-08-26T02:48:14.069Z,14.46
2022-08-26T02:49:11.062Z,14.46
2022-08-26T02:50:11.057Z,14.48
2022-08-26T02:51:11.062Z,14.43
2022-08-26T02:52:11.062Z,14.43
2022-08-26T02:53:11.062Z,14.39
2022-08-26T02:54:11.061Z,14.41
2022-08-26T02:55:11.062Z,14.40
2022-08-26T02:56:11.061Z,14.42
2022-08-26T02:57:11.062Z,14.42
2022-08-26T02:58:11.064Z,14.42
2022-08-26T02:59:11.061Z,14.44
2022-08-26T03:00:11.060Z,14.43
2022-08-26T03:01:15.102Z,14.43
2022-08-26T03:02:11.204Z,14.42
2022-08-26T03:03:11.063Z,14.43
2022-08-26T03:04:11.072Z,14.42
2022-08-26T03:05:11.063Z,14.42
2022-08-26T03:06:11.065Z,14.37
2022-08-26T03:07:11.070Z,14.42
2022-08-26T03:08:11.065Z,14.44
2022-08-26T03:09:11.059Z,14.39
2022-08-26T03:10:13.380Z,14.42
2022-08-26T03:11:11.070Z,14.44
2022-08-26T03:12:11.062Z,14.45
2022-08-26T03:13:11.064Z,14.45
2022-08-26T03:14:11.071Z,14.43
2022-08-26T03:15:16.430Z,14.43
2022-08-26T03:16:13.132Z,14.44
2022-08-26T03:17:11.066Z,14.44
2022-08-26T03:18:11.071Z,14.45
2022-08-26T03:19:11.061Z,14.44
2022-08-26T03:20:13.768Z,14.43
2022-08-26T03:21:12.059Z,14.41
2022-08-26T03:22:11.089Z,14.39
2022-08-26T03:23:11.059Z,14.38
2022-08-26T03:24:11.071Z,14.39
2022-08-26T03:25:11.056Z,14.41
2022-08-26T03:26:11.057Z,14.43
2022-08-26T03:27:11.060Z,14.42
2022-08-26T03:28:11.057Z,14.43
2022-08-26T03:29:15.068Z,14.43
2022-08-26T03:30:15.061Z,14.43
2022-08-26T03:31:11.123Z,14.41
2022-08-26T03:32:11.066Z,14.39
2022-08-26T03:33:11.067Z,14.39
2022-08-26T03:34:11.203Z,14.38
2022-08-26T03:35:11.055Z,14.36
2022-08-26T03:36:11.067Z,14.35
2022-08-26T03:37:11.060Z,14.35
2022-08-26T03:38:12.057Z,14.36
2022-08-26T03:39:11.071Z,14.36
2022-08-26T03:40:11.108Z,14.36
2022-08-26T03:41:11.060Z,14.34
2022-08-26T03:42:11.060Z,14.33
2022-08-26T03:43:11.061Z,14.30
2022-08-26T03:44:11.058Z,14.29
2022-08-26T03:45:11.060Z,14.29
2022-08-26T03:46:11.124Z,14.27
2022-08-26T03:47:11.060Z,14.26
2022-08-26T03:48:11.062Z,14.26
2022-08-26T03:49:11.068Z,14.27
2022-08-26T03:50:11.061Z,14.27
2022-08-26T03:51:14.062Z,14.25
2022-08-26T03:52:11.069Z,14.23
2022-08-26T03:53:12.838Z,14.25
2022-08-26T03:54:11.064Z,14.23
2022-08-26T03:55:11.069Z,14.22
2022-08-26T03:56:11.064Z,14.22
2022-08-26T03:57:11.066Z,14.15
2022-08-26T03:58:11.070Z,14.13
2022-08-26T03:59:11.064Z,14.13
2022-08-26T04:00:12.059Z,14.13
2022-08-26T04:01:13.071Z,14.11
2022-08-26T04:02:11.557Z,14.13
2022-08-26T04:03:12.157Z,14.11
2022-08-26T04:04:12.409Z,14.12
2022-08-26T04:05:11.064Z,14.14
2022-08-26T04:06:11.061Z,14.15
2022-08-26T04:07:11.067Z,14.16
2022-08-26T04:08:11.065Z,14.17
2022-08-26T04:09:16.063Z,14.16
2022-08-26T04:10:11.064Z,14.17
2022-08-26T04:11:15.072Z,14.18
2022-08-26T04:12:11.067Z,14.20
2022-08-26T04:13:11.060Z,14.23
2022-08-26T04:14:12.067Z,14.20
2022-08-26T04:15:14.064Z,14.22
2022-08-26T04:16:11.083Z,14.22
2022-08-26T04:17:11.063Z,14.24
2022-08-26T04:18:11.065Z,14.24
2022-08-26T04:19:12.063Z,14.26
2022-08-26T04:20:11.064Z,14.26
2022-08-26T04:21:11.058Z,14.26
2022-08-26T04:22:11.055Z,14.27
2022-08-26T04:23:11.056Z,14.28
2022-08-26T04:24:12.204Z,14.30
2022-08-26T04:25:11.060Z,14.30
2022-08-26T04:26:11.058Z,14.30
2022-08-26T04:27:11.065Z,14.31
2022-08-26T04:28:11.054Z,14.29
2022-08-26T04:29:12.058Z,14.28
2022-08-26T04:30:11.066Z,14.28
2022-08-26T04:31:15.087Z,14.30
2022-08-26T04:32:11.052Z,14.29
2022-08-26T04:33:12.585Z,14.30
2022-08-26T04:34:11.216Z,14.31
2022-08-26T04:35:11.054Z,14.28
2022-08-26T04:36:11.061Z,14.26
2022-08-26T04:37:11.059Z,14.26
2022-08-26T04:38:11.057Z,14.25
2022-08-26T04:39:11.060Z,14.24
2022-08-26T04:40:11.198Z,14.24
2022-08-26T04:41:15.455Z,14.23
2022-08-26T04:42:13.384Z,14.25
2022-08-26T04:43:11.066Z,14.26
2022-08-26T04:44:11.056Z,14.27
2022-08-26T04:45:11.793Z,14.29
2022-08-26T04:46:11.097Z,14.29
2022-08-26T04:47:11.062Z,14.27
2022-08-26T04:48:11.208Z,14.29
2022-08-26T04:49:12.061Z,14.30
2022-08-26T04:50:11.142Z,14.30
2022-08-26T04:51:11.059Z,14.29
2022-08-26T04:52:11.059Z,14.30
2022-08-26T04:53:11.062Z,14.30
2022-08-26T04:54:11.058Z,14.32
2022-08-26T04:55:11.060Z,14.33
2022-08-26T04:56:11.069Z,14.34
2022-08-26T04:57:11.058Z,14.33
2022-08-26T04:58:13.061Z,14.34
2022-08-26T04:59:17.124Z,14.35
2022-08-26T05:00:13.330Z,14.37
2022-08-26T05:01:11.112Z,14.36
2022-08-26T05:02:11.061Z,14.36
2022-08-26T05:03:11.062Z,14.37
2022-08-26T05:04:11.079Z,14.31
2022-08-26T05:05:11.060Z,14.34
2022-08-26T05:06:11.061Z,14.36
2022-08-26T05:07:11.060Z,14.38
2022-08-26T05:08:11.208Z,14.39
2022-08-26T05:09:11.061Z,14.38
2022-08-26T05:10:11.059Z,14.32
2022-08-26T05:11:11.063Z,14.29
2022-08-26T05:12:11.063Z,14.25
2022-08-26T05:13:12.645Z,14.24
2022-08-26T05:14:11.065Z,14.23
2022-08-26T05:15:11.070Z,14.24
2022-08-26T05:16:11.620Z,14.22
2022-08-26T05:17:11.061Z,14.20
2022-08-26T05:18:11.062Z,14.19
2022-08-26T05:19:11.064Z,14.15
2022-08-26T05:20:11.062Z,14.15
2022-08-26T05:21:15.060Z,14.15
2022-08-26T05:22:13.163Z,14.15
2022-08-26T05:23:11.059Z,14.14
2022-08-26T05:24:12.064Z,14.14
2022-08-26T05:25:11.069Z,14.12
2022-08-26T05:26:11.063Z,14.12
2022-08-26T05:27:11.714Z,14.12
2022-08-26T05:28:11.064Z,14.13
2022-08-26T05:29:11.061Z,14.09
2022-08-26T05:30:11.060Z,14.11
2022-08-26T05:31:17.114Z,14.07
2022-08-26T05:32:11.261Z,14.05
2022-08-26T05:33:11.236Z,13.95
2022-08-26T05:34:11.061Z,13.91
2022-08-26T05:35:11.069Z,13.89
2022-08-26T05:36:11.061Z,13.92
2022-08-26T05:37:11.066Z,13.93
2022-08-26T05:38:12.964Z,13.95
2022-08-26T05:39:11.065Z,13.96
2022-08-26T05:40:11.128Z,13.96
2022-08-26T05:41:19.071Z,13.96
2022-08-26T05:42:12.065Z,13.94
2022-08-26T05:43:14.065Z,13.90
2022-08-26T05:44:15.064Z,13.85
2022-08-26T05:45:11.072Z,13.83
2022-08-26T05:46:11.121Z,13.85
2022-08-26T05:47:11.067Z,13.87
2022-08-26T05:48:12.075Z,13.89
2022-08-26T05:49:12.297Z,13.90
2022-08-26T05:50:11.061Z,13.92
2022-08-26T05:51:11.067Z,13.92
2022-08-26T05:52:11.077Z,13.94
2022-08-26T05:53:11.063Z,13.96
2022-08-26T05:54:12.073Z,13.96
2022-08-26T05:55:11.066Z,13.95
2022-08-26T05:56:11.062Z,13.95
2022-08-26T05:57:11.072Z,13.96
2022-08-26T05:58:11.066Z,13.96
2022-08-26T05:59:14.481Z,13.97
2022-08-26T06:00:11.067Z,13.99
2022-08-26T06:01:17.121Z,14.00
2022-08-26T06:02:11.064Z,14.01
2022-08-26T06:03:11.221Z,14.00
2022-08-26T06:04:11.065Z,14.01
2022-08-26T06:05:11.064Z,14.01
2022-08-26T06:06:13.069Z,14.02
2022-08-26T06:07:13.376Z,14.02
2022-08-26T06:08:15.062Z,14.03
2022-08-26T06:09:11.400Z,14.04
2022-08-26T06:10:31.504Z,14.05
2022-08-26T06:11:18.470Z,14.05
2022-08-26T06:12:13.072Z,14.04
2022-08-26T06:13:12.109Z,14.04
2022-08-26T06:14:11.068Z,14.04
2022-08-26T06:15:11.066Z,14.03
2022-08-26T06:16:11.117Z,14.05
2022-08-26T06:17:11.068Z,14.06
2022-08-26T06:18:11.065Z,14.05
2022-08-26T06:19:11.572Z,14.08
2022-08-26T06:20:11.069Z,14.10
2022-08-26T06:21:18.063Z,14.13
2022-08-26T06:22:18.449Z,14.15
2022-08-26T06:23:17.074Z,14.16
2022-08-26T06:24:15.064Z,14.13
2022-08-26T06:25:15.061Z,14.16
2022-08-26T06:26:11.200Z,14.19
2022-08-26T06:27:12.065Z,14.19
2022-08-26T06:28:11.065Z,14.20
2022-08-26T06:29:11.064Z,14.22
2022-08-26T06:30:11.063Z,14.25
2022-08-26T06:31:11.111Z,14.25
2022-08-26T06:32:11.065Z,14.28
2022-08-26T06:33:11.065Z,14.27
2022-08-26T06:34:11.099Z,14.26
2022-08-26T06:35:11.874Z,14.28
2022-08-26T06:36:15.064Z,14.31
2022-08-26T06:37:11.071Z,14.32
2022-08-26T06:38:11.063Z,14.34
2022-08-26T06:39:11.067Z,14.35
2022-08-26T06:40:11.479Z,14.35
2022-08-26T06:41:11.071Z,14.36
2022-08-26T06:42:11.931Z,14.36
2022-08-26T06:43:11.074Z,14.39
2022-08-26T06:44:11.067Z,14.40
2022-08-26T06:45:11.068Z,14.43
2022-08-26T06:46:11.104Z,14.45
2022-08-26T06:47:11.069Z,14.48
2022-08-26T06:48:11.064Z,14.48
2022-08-26T06:49:11.067Z,14.52
2022-08-26T06:50:11.073Z,14.55
2022-08-26T06:51:20.063Z,14.55
2022-08-26T06:52:11.069Z,14.56
2022-08-26T06:53:11.075Z,14.60
2022-08-26T06:54:11.069Z,14.61
2022-08-26T06:55:11.069Z,14.63
2022-08-26T06:56:11.105Z,14.67
2022-08-26T06:57:11.068Z,14.71
2022-08-26T06:58:11.066Z,14.75
2022-08-26T06:59:11.070Z,14.79
2022-08-26T07:00:13.069Z,14.82
2022-08-26T07:01:18.185Z,14.85
2022-08-26T07:02:13.523Z,14.89
2022-08-26T07:03:11.403Z,14.91
2022-08-26T07:04:11.065Z,14.95
2022-08-26T07:05:11.069Z,14.99
2022-08-26T07:06:11.077Z,15.01
2022-08-26T07:07:13.074Z,15.02
2022-08-26T07:08:11.068Z,15.04
2022-08-26T07:09:11.069Z,15.07
2022-08-26T07:10:11.071Z,15.11
2022-08-26T07:11:11.068Z,15.16
2022-08-26T07:12:11.071Z,15.19
2022-08-26T07:13:11.071Z,15.24
2022-08-26T07:14:11.068Z,15.28
2022-08-26T07:15:11.078Z,15.33
2022-08-26T07:16:11.154Z,15.36
2022-08-26T07:17:13.705Z,15.42
2022-08-26T07:18:13.070Z,15.45
2022-08-26T07:19:11.601Z,15.52
2022-08-26T07:20:12.068Z,15.56
2022-08-26T07:21:11.060Z,15.58
2022-08-26T07:22:11.066Z,15.63
2022-08-26T07:23:11.767Z,15.66
2022-08-26T07:24:11.337Z,15.71
2022-08-26T07:25:12.076Z,15.77
2022-08-26T07:26:18.074Z,15.79
2022-08-26T07:27:12.059Z,15.81
2022-08-26T07:28:11.059Z,15.87
2022-08-26T07:29:11.068Z,15.94
2022-08-26T07:30:11.058Z,15.96
2022-08-26T07:31:11.142Z,16.00
2022-08-26T07:32:11.067Z,16.03
2022-08-26T07:33:11.061Z,16.09
2022-08-26T07:34:11.058Z,16.15
2022-08-26T07:35:11.068Z,16.22
2022-08-26T07:36:11.062Z,16.26
2022-08-26T07:37:11.056Z,16.30
2022-08-26T07:38:11.062Z,16.34
2022-08-26T07:39:11.061Z,16.39
2022-08-26T07:40:11.091Z,16.43
2022-08-26T07:41:11.062Z,16.50
2022-08-26T07:42:11.063Z,16.57
2022-08-26T07:43:11.058Z,16.62
2022-08-26T07:44:11.069Z,16.67
2022-08-26T07:45:11.065Z,16.69
2022-08-26T07:46:15.850Z,16.75
2022-08-26T07:47:26.129Z,16.84
2022-08-26T07:48:13.069Z,16.91
2022-08-26T07:49:11.064Z,16.99
2022-08-26T07:50:11.065Z,17.06
2022-08-26T07:51:11.070Z,17.15
2022-08-26T07:52:11.064Z,17.25
2022-08-26T07:53:11.130Z,17.33
2022-08-26T07:54:11.069Z,17.42
2022-08-26T07:55:11.063Z,17.50
2022-08-26T07:56:11.065Z,17.54
2022-08-26T07:57:11.071Z,17.57
2022-08-26T07:58:11.060Z,17.62
2022-08-26T07:59:13.631Z,17.67
2022-08-26T08:00:12.074Z,17.70
2022-08-26T08:01:11.108Z,17.73
2022-08-26T08:02:11.243Z,17.71
2022-08-26T08:03:11.072Z,17.77
2022-08-26T08:04:11.067Z,17.80
2022-08-26T08:05:11.101Z,17.86
2022-08-26T08:06:11.064Z,17.91
2022-08-26T08:07:11.948Z,17.91
2022-08-26T08:08:26.621Z,17.92
2022-08-26T08:09:13.309Z,17.89
2022-08-26T08:10:11.441Z,17.90
2022-08-26T08:11:11.067Z,17.91
2022-08-26T08:12:14.266Z,17.91
2022-08-26T08:13:11.073Z,17.88
2022-08-26T08:14:11.626Z,17.87
2022-08-26T08:15:11.078Z,17.88
2022-08-26T08:16:12.704Z,17.90
2022-08-26T08:18:15.456Z,17.97
2022-08-26T08:19:11.067Z,17.98
2022-08-26T08:20:11.073Z,18.02
2022-08-26T08:21:22.191Z,18.05
2022-08-26T08:22:13.342Z,18.07
2022-08-26T08:23:11.058Z,18.03
2022-08-26T08:24:11.060Z,18.03
2022-08-26T08:25:11.057Z,18.03
2022-08-26T08:26:12.060Z,18.07
2022-08-26T08:27:11.066Z,18.04
2022-08-26T08:28:11.059Z,18.01
2022-08-26T08:29:11.058Z,18.00
2022-08-26T08:30:13.770Z,17.98
2022-08-26T08:31:15.109Z,17.99
2022-08-26T08:32:11.612Z,17.91
2022-08-26T08:33:11.068Z,17.92
2022-08-26T08:34:11.059Z,17.93
2022-08-26T08:35:11.719Z,17.96
2022-08-26T08:36:11.068Z,18.07
2022-08-26T08:37:13.089Z,18.21
2022-08-26T08:38:11.063Z,18.21
2022-08-26T08:39:11.069Z,18.19
2022-08-26T08:40:11.123Z,18.29
2022-08-26T08:41:19.061Z,18.26
2022-08-26T08:42:19.069Z,18.44
2022-08-26T08:43:14.071Z,18.54
2022-08-26T08:44:19.149Z,18.57
2022-08-26T08:45:16.801Z,18.67
2022-08-26T08:46:14.188Z,18.64
2022-08-26T08:47:21.086Z,18.62
2022-08-26T08:48:20.060Z,18.63
2022-08-26T08:49:11.061Z,18.66
2022-08-26T08:50:19.066Z,18.64
2022-08-26T08:51:19.066Z,18.71
2022-08-26T08:52:19.064Z,18.80
2022-08-26T08:53:17.065Z,18.90
2022-08-26T08:54:11.064Z,19.02
2022-08-26T08:55:16.046Z,19.12
2022-08-26T08:56:21.064Z,19.21
2022-08-26T08:57:20.068Z,19.25
2022-08-26T08:58:16.067Z,19.27
2022-08-26T08:59:19.066Z,19.29
2022-08-26T09:00:15.066Z,19.35
2022-08-26T09:01:17.113Z,19.40
2022-08-26T09:02:21.108Z,19.52
2022-08-26T09:03:19.072Z,19.63
2022-08-26T09:04:21.066Z,19.73
2022-08-26T09:05:21.063Z,19.77
2022-08-26T09:06:15.065Z,19.77
2022-08-26T09:07:16.065Z,19.81
2022-08-26T09:08:15.074Z,19.83
2022-08-26T09:09:14.067Z,19.92
2022-08-26T09:10:19.061Z,19.79
2022-08-26T09:11:11.066Z,19.88
2022-08-26T09:12:16.068Z,19.98
2022-08-26T09:13:13.800Z,20.09
2022-08-26T09:14:11.062Z,20.10
2022-08-26T09:15:17.074Z,20.25
2022-08-26T09:16:15.247Z,20.15
2022-08-26T09:17:19.067Z,20.21
2022-08-26T09:18:21.071Z,20.20
2022-08-26T09:19:19.306Z,20.27
2022-08-26T09:20:21.071Z,20.39
2022-08-26T09:21:11.059Z,20.51
2022-08-26T09:22:11.084Z,20.62
2022-08-26T09:23:11.057Z,20.69
2022-08-26T09:24:13.968Z,20.77
2022-08-26T09:25:13.057Z,20.86
2022-08-26T09:26:19.060Z,20.96
2022-08-26T09:27:11.441Z,21.07
2022-08-26T09:28:16.058Z,21.06
2022-08-26T09:30:11.523Z,21.07
2022-08-26T09:31:18.117Z,21.13
2022-08-26T09:32:18.062Z,20.91
2022-08-26T09:33:15.210Z,21.15
2022-08-26T09:34:19.152Z,21.18
2022-08-26T09:35:19.073Z,21.27
2022-08-26T09:36:18.065Z,21.26
2022-08-26T09:37:11.058Z,21.39
2022-08-26T09:38:19.063Z,21.43
2022-08-26T09:39:21.062Z,21.46
2022-08-26T09:40:18.187Z,21.39
2022-08-26T09:41:19.061Z,21.41
2022-08-26T09:42:16.684Z,21.38
2022-08-26T09:43:22.136Z,21.54
2022-08-26T09:44:17.062Z,21.64
2022-08-26T09:45:15.063Z,21.64
2022-08-26T09:46:17.131Z,21.54
2022-08-26T09:47:11.063Z,21.56
2022-08-26T09:48:11.252Z,21.59
2022-08-26T09:49:23.326Z,21.58
2022-08-26T09:50:19.060Z,21.63
2022-08-26T09:51:19.063Z,21.68
2022-08-26T09:52:19.070Z,21.83
2022-08-26T09:53:20.816Z,21.84
2022-08-26T09:54:15.063Z,21.91
2022-08-26T09:55:21.081Z,21.93
2022-08-26T09:56:20.064Z,21.89
2022-08-26T09:57:20.075Z,21.98
2022-08-26T09:58:20.067Z,21.99
2022-08-26T09:59:11.240Z,21.90
2022-08-26T10:00:21.068Z,21.93
2022-08-26T10:01:19.462Z,21.99
2022-08-26T10:02:21.075Z,22.05
2022-08-26T10:03:18.067Z,21.93
2022-08-26T10:04:21.127Z,22.02
2022-08-26T10:05:15.068Z,22.08
2022-08-26T10:06:21.299Z,22.18
2022-08-26T10:07:11.068Z,22.31
2022-08-26T10:08:21.067Z,22.40
2022-08-26T10:09:13.066Z,22.48
2022-08-26T10:10:21.067Z,22.59
2022-08-26T10:11:18.074Z,22.73
2022-08-26T10:12:15.068Z,22.65
2022-08-26T10:13:17.066Z,22.74
2022-08-26T10:14:19.071Z,22.82
2022-08-26T10:15:12.071Z,22.90
2022-08-26T10:16:18.130Z,22.98
2022-08-26T10:17:16.067Z,23.06
2022-08-26T10:18:17.070Z,23.06
2022-08-26T10:19:15.071Z,22.91
2022-08-26T10:20:23.434Z,22.95
2022-08-26T10:21:19.153Z,23.03
2022-08-26T10:22:19.059Z,23.06
2022-08-26T10:23:13.057Z,23.16
2022-08-26T10:24:11.386Z,23.27
2022-08-26T10:25:15.057Z,23.21
2022-08-26T10:26:19.061Z,23.25
2022-08-26T10:27:21.062Z,23.30
2022-08-26T10:28:17.061Z,23.20
2022-08-26T10:29:17.060Z,23.20
2022-08-26T10:30:16.058Z,23.01
2022-08-26T10:31:21.118Z,23.03
2022-08-26T10:32:21.182Z,23.09
2022-08-26T10:33:13.058Z,23.15
2022-08-26T10:34:12.558Z,23.28
2022-08-26T10:35:14.070Z,23.34
2022-08-26T10:36:15.327Z,23.50
2022-08-26T10:37:21.071Z,23.50
2022-08-26T10:38:14.060Z,23.49
2022-08-26T10:39:16.061Z,23.50
2022-08-26T10:40:17.155Z,23.53
2022-08-26T10:41:19.061Z,23.44
2022-08-26T10:42:19.072Z,23.54
2022-08-26T10:43:17.065Z,23.47
2022-08-26T10:44:12.061Z,23.43
2022-08-26T10:45:16.062Z,23.51
2022-08-26T10:46:14.196Z,23.54
2022-08-26T10:47:19.065Z,23.71
2022-08-26T10:48:16.062Z,23.71
2022-08-26T10:49:15.065Z,23.75
2022-08-26T10:50:11.066Z,23.81
2022-08-26T10:51:11.064Z,23.85
2022-08-26T10:52:19.061Z,23.86
2022-08-26T10:53:17.064Z,23.81
2022-08-26T10:54:21.076Z,23.84
2022-08-26T10:55:21.065Z,23.74
2022-08-26T10:56:19.378Z,23.85
2022-08-26T10:57:21.062Z,23.89
2022-08-26T10:58:26.632Z,23.93
2022-08-26T10:59:21.069Z,23.95
2022-08-26T11:00:21.073Z,23.99
2022-08-26T11:01:23.338Z,24.00
2022-08-26T11:02:24.912Z,23.89
2022-08-26T11:03:22.568Z,23.87
2022-08-26T11:04:19.133Z,23.91
2022-08-26T11:05:16.076Z,24.01
2022-08-26T11:06:19.068Z,24.03
2022-08-26T11:07:19.068Z,24.08
2022-08-26T11:08:21.068Z,24.07
2022-08-26T11:09:11.145Z,24.05
2022-08-26T11:10:16.077Z,24.03
2022-08-26T11:11:11.066Z,24.13
2022-08-26T11:12:15.068Z,24.09
2022-08-26T11:13:11.233Z,24.17
2022-08-26T11:14:29.201Z,24.12
2022-08-26T11:15:24.631Z,24.21
2022-08-26T11:16:11.147Z,24.22
2022-08-26T11:17:11.077Z,24.31
2022-08-26T11:18:17.070Z,24.35
2022-08-26T11:19:12.089Z,24.21
2022-08-26T11:20:15.075Z,24.22
2022-08-26T11:21:19.057Z,24.08
2022-08-26T11:22:23.095Z,24.21
2022-08-26T11:23:19.058Z,24.26
2022-08-26T11:24:15.064Z,24.25
2022-08-26T11:25:11.501Z,24.30
2022-08-26T11:26:29.995Z,24.32
2022-08-26T11:27:14.062Z,24.45
2022-08-26T11:28:11.255Z,24.55
2022-08-26T11:29:13.328Z,24.49
2022-08-26T11:30:19.131Z,24.34
2022-08-26T11:31:15.075Z,24.20
2022-08-26T11:32:21.059Z,24.01
2022-08-26T11:33:11.359Z,23.89
2022-08-26T11:34:14.064Z,23.87
2022-08-26T11:35:12.058Z,23.76
2022-08-26T11:36:12.274Z,23.84
2022-08-26T11:37:16.090Z,23.89
2022-08-26T11:38:19.059Z,24.04
2022-08-26T11:39:19.057Z,24.15
2022-08-26T11:40:25.109Z,24.13
2022-08-26T11:41:11.061Z,24.10
2022-08-26T11:42:20.105Z,24.06
2022-08-26T11:43:17.064Z,23.89
2022-08-26T11:44:16.062Z,23.91
2022-08-26T11:45:19.076Z,23.91
2022-08-26T11:46:11.115Z,23.93
2022-08-26T11:47:15.064Z,23.89
2022-08-26T11:48:19.062Z,23.76
2022-08-26T11:49:11.070Z,23.72
2022-08-26T11:50:18.062Z,23.70
2022-08-26T11:51:18.060Z,23.66
2022-08-26T11:52:18.062Z,23.74
2022-08-26T11:53:11.066Z,23.75
2022-08-26T11:54:14.065Z,23.76
2022-08-26T11:55:15.061Z,23.74
2022-08-26T11:56:21.066Z,23.68
2022-08-26T11:57:14.074Z,23.38
2022-08-26T11:58:13.077Z,23.55
2022-08-26T11:59:11.062Z,23.79
2022-08-26T12:00:13.594Z,23.91
2022-08-26T12:01:12.072Z,23.98
2022-08-26T12:02:16.064Z,24.11
2022-08-26T12:03:15.143Z,24.15
2022-08-26T12:04:13.231Z,24.19
2022-08-26T12:05:12.067Z,24.16
2022-08-26T12:06:16.129Z,24.10
2022-08-26T12:07:12.068Z,24.11
2022-08-26T12:08:15.080Z,24.02
2022-08-26T12:09:14.065Z,23.86
2022-08-26T12:10:16.074Z,23.65
2022-08-26T12:11:15.069Z,23.72
2022-08-26T12:12:18.069Z,23.73
2022-08-26T12:13:15.065Z,23.75
2022-08-26T12:14:21.069Z,23.69
2022-08-26T12:15:16.067Z,23.55
2022-08-26T12:16:11.128Z,23.56
2022-08-26T12:17:17.068Z,23.50
2022-08-26T12:18:18.072Z,23.43
2022-08-26T12:19:19.073Z,23.47
2022-08-26T12:20:21.058Z,23.40
2022-08-26T12:21:20.059Z,23.31
2022-08-26T12:22:17.056Z,23.23
2022-08-26T12:23:11.055Z,23.20
2022-08-26T12:24:11.061Z,23.14
2022-08-26T12:25:11.060Z,23.10
2022-08-26T12:26:16.061Z,23.07
2022-08-26T12:27:20.066Z,23.12
2022-08-26T12:28:11.070Z,23.16
2022-08-26T12:29:26.740Z,23.30
2022-08-26T12:30:22.118Z,23.50
2022-08-26T12:31:11.107Z,23.61
2022-08-26T12:32:17.061Z,23.63
2022-08-26T12:33:19.939Z,23.77
2022-08-26T12:34:17.884Z,23.88
2022-08-26T12:35:16.067Z,23.88
2022-08-26T12:36:11.067Z,24.02
2022-08-26T12:37:12.070Z,24.10
2022-08-26T12:38:11.056Z,24.06
2022-08-26T12:39:15.064Z,24.05
2022-08-26T12:40:21.143Z,24.09
2022-08-26T12:41:11.069Z,24.07
2022-08-26T12:42:19.065Z,24.09
2022-08-26T12:43:11.061Z,24.04
2022-08-26T12:44:15.062Z,24.07
2022-08-26T12:45:11.060Z,24.07
2022-08-26T12:46:13.061Z,24.07
2022-08-26T12:47:16.062Z,23.95
2022-08-26T12:48:19.343Z,23.95
2022-08-26T12:49:13.057Z,24.00
2022-08-26T12:50:15.063Z,23.95
2022-08-26T12:51:19.064Z,24.01
2022-08-26T12:52:19.062Z,23.97
2022-08-26T12:53:21.063Z,23.98
2022-08-26T12:54:15.061Z,24.05